Data for 02/02/2016

Time Sea-Level Adjusted Pressure Absolute Pressure Temperature Relative Humidity Dew Point   
(mb) (inHg) (mb) (inHg) (C) (F) (%) (C) (F)
00:05 1017 30.03 846 24.98 -10.7 12.7 77 -14 6.8
00:10 1017 30.03 846 24.98 -10.4 13.2 75 -14 6.8
00:15 1017 30.03 846 24.98 -10.3 13.5 75 -13.9 7
00:20 1017 30.03 846 24.98 -10.3 13.6 76 -13.8 7.2
00:25 1017 30.03 846 24.98 -10.2 13.7 75 -13.7 7.3
00:30 1017 30.03 846 24.98 -10.1 13.8 75 -13.8 7.2
00:35 1017 30.03 846 24.98 -10.1 13.9 75 -13.7 7.3
00:40 1017 30.03 846 24.98 -10 13.9 74 -13.9 7
00:45 1017 30.03 846 24.98 -10.1 13.8 73 -14.1 6.6
00:50 1017 30.03 846 24.98 -10.3 13.5 73 -14.2 6.4
00:55 1017 30.03 846 24.98 -10.2 13.6 73 -14.2 6.4
01:00 1017 30.03 846 24.98 -10.2 13.7 74 -14 6.8
01:05 1017 30.03 846 24.98 -10 14.1 72 -14.1 6.7
01:10 1017 30.03 846 24.98 -9.7 14.5 72 -13.8 7.1
01:15 1017 30.03 846 24.98 -9.6 14.7 71 -13.8 7.1
01:20 1017 30.03 846 24.98 -9.5 15 71 -13.8 7.2
01:25 1017 30.03 846 24.98 -9.3 15.2 71 -13.7 7.3
01:30 1017 30.03 846 24.98 -9.3 15.2 71 -13.7 7.3
01:35 1017 30.03 846 24.98 -9.3 15.3 71 -13.6 7.5
01:40 1017 30.03 846 24.98 -9.2 15.4 70 -13.7 7.3
01:45 1017 30.03 846 24.98 -9.1 15.5 70 -13.7 7.4
01:50 1017 30.03 846 24.98 -9.1 15.7 70 -13.6 7.5
01:55 1017 30.03 846 24.98 -9.1 15.7 70 -13.6 7.5
02:00 1017 30.03 846 24.98 -9.1 15.6 70 -13.6 7.5
02:05 1017 30.03 846 24.98 -9.1 15.7 70 -13.6 7.6
02:10 1017 30.03 846 24.98 -9.2 15.4 71 -13.6 7.5
02:15 1017 30.03 846 24.98 -9.3 15.2 71 -13.7 7.4
02:20 1017 30.03 846 24.98 -9.4 15.1 72 -13.6 7.5
02:25 1016 30 846 24.98 -9.5 15 71 -13.7 7.3
02:30 1016 30 846 24.98 -9.3 15.3 69 -14 6.8
02:35 1016 30 846 24.98 -9.1 15.6 69 -13.8 7.2
02:40 1016 30 846 24.98 -9.1 15.6 70 -13.6 7.6
02:45 1016 30 846 24.98 -9.1 15.6 71 -13.5 7.7
02:50 1016 30 846 24.98 -8.9 15.9 69 -13.6 7.5
02:55 1016 30 846 24.98 -8.8 16.1 69 -13.5 7.7
03:00 1016 30 846 24.98 -8.9 16.1 68 -13.7 7.4
03:05 1016 30 846 24.98 -8.8 16.2 68 -13.7 7.3
03:10 1016 30 846 24.98 -8.7 16.3 68 -13.5 7.6
03:15 1017 30.03 846 24.98 -8.6 16.5 69 -13.3 8
03:20 1017 30.03 846 24.98 -8.6 16.6 71 -13 8.7
03:25 1017 30.03 846 24.98 -8.7 16.4 72 -12.9 8.9
03:30 1017 30.03 846 24.98 -8.9 16 72 -13 8.6
03:35 1017 30.03 846 24.98 -9.3 15.3 74 -13.1 8.3
03:40 1017 30.03 846 24.98 -9.4 15 74 -13.2 8.3
03:45 1017 30.03 846 24.98 -9.4 15 74 -13.2 8.2
03:50 1017 30.03 846 24.98 -9.3 15.2 74 -13.2 8.2
03:55 1017 30.03 846 24.98 -9.3 15.2 74 -13.1 8.4
04:00 1017 30.03 846 24.98 -9.4 15.2 74 -13.2 8.2
04:05 1017 30.03 846 24.98 -9.3 15.2 73 -13.3 8.1
04:10 1017 30.03 846 24.98 -9.3 15.2 73 -13.3 8.1
04:15 1017 30.03 846 24.98 -9.2 15.4 72 -13.3 8
04:20 1016 30 846 24.98 -9.1 15.5 72 -13.2 8.2
04:25 1016 30 846 24.98 -9.3 15.3 74 -13.2 8.3
04:30 1016 30 846 24.98 -9.4 15.2 74 -13.2 8.2
04:35 1016 30 846 24.98 -9.3 15.2 73 -13.3 8.1
04:40 1016 30 846 24.98 -9.2 15.5 73 -13.2 8.3
04:45 1016 30 846 24.98 -9.2 15.4 74 -13.1 8.4
04:50 1016 30 846 24.98 -9.3 15.2 73 -13.3 8.1
04:55 1016 30 846 24.98 -9.3 15.2 73 -13.3 8.1
05:00 1016 30 846 24.98 -9.2 15.5 72 -13.3 8.1
05:05 1016 30 846 24.98 -9.2 15.5 73 -13.2 8.3
05:10 1016 30 846 24.98 -9.2 15.4 73 -13.1 8.4
05:15 1016 30 846 24.98 -9.3 15.3 74 -13.2 8.3
05:20 1016 30 846 24.98 -9.3 15.2 74 -13.1 8.3
05:25 1016 30 846 24.98 -9.3 15.3 74 -13.1 8.3
05:30 1016 30 846 24.98 -9.4 15.1 75 -13.1 8.5
05:35 1016 30 846 24.98 -9.4 15 75 -13.1 8.3
05:40 1016 30 846 24.98 -9.4 15.1 75 -13.1 8.4
05:45 1017 30.03 846 24.98 -9.3 15.2 74 -13.1 8.4
05:50 1017 30.03 846 24.98 -9.3 15.3 74 -13.2 8.2
05:55 1017 30.03 846 24.98 -9.2 15.5 73 -13.1 8.4
06:00 1017 30.03 846 24.98 -9.2 15.4 74 -13.1 8.4
06:05 1017 30.03 846 24.98 -9.1 15.5 73 -13.2 8.3
06:10 1017 30.03 846 24.98 -8.9 16.1 71 -13.1 8.4
06:15 1017 30.03 846 24.98 -8.7 16.3 71 -13 8.5
06:20 1017 30.03 846 24.98 -8.9 16 72 -13.1 8.4
06:25 1017 30.03 846 24.98 -9 15.7 72 -13.2 8.3
06:30 1017 30.03 846 24.98 -9.2 15.5 73 -13.2 8.2
06:35 1017 30.03 846 24.98 -9.2 15.4 73 -13.3 8.1
06:40 1017 30.03 846 24.98 -9.4 15 74 -13.3 8
06:45 1017 30.03 846 24.98 -9.5 15 73 -13.4 7.9
06:50 1017 30.03 846 24.98 -9.4 15.1 74 -13.3 8.1
06:55 1017 30.03 846 24.98 -9.4 15 74 -13.3 8.1
07:00 1017 30.03 846 24.98 -9.5 14.9 74 -13.3 8.1
07:05 1017 30.03 846 24.98 -9.5 14.8 74 -13.3 8.1
07:10 1017 30.03 846 24.98 -9.5 14.9 75 -13.2 8.3
07:15 1017 30.03 846 24.98 -9.5 14.9 75 -13.1 8.3
07:20 1017 30.03 846 24.98 -9.5 14.9 75 -13.1 8.4
07:25 1017 30.03 846 24.98 -9.5 14.9 75 -13.2 8.3
07:30 1017 30.03 846 24.98 -9.5 15 75 -13.1 8.4
07:35 1017 30.03 846 24.98 -9.3 15.2 75 -13 8.6
07:40 1017 30.03 846 24.98 -9.2 15.4 75 -12.9 8.8
07:45 1017 30.03 846 24.98 -9.3 15.3 75 -12.9 8.8
07:50 1017 30.03 846 24.98 -9.4 15.2 76 -12.8 9
07:55 1017 30.03 846 24.98 -9.4 15.2 77 -12.7 9.1
08:00 1017 30.03 846 24.98 -9.3 15.3 77 -12.7 9.2
08:05 1017 30.03 846 24.98 -9.2 15.4 77 -12.6 9.3
08:10 1017 30.03 846 24.98 -9.3 15.4 77 -12.6 9.4
08:15 1017 30.03 846 24.98 -9.4 15.1 77 -12.7 9.1
08:20 1017 30.03 846 24.98 -9.5 14.8 77 -12.9 8.9
08:25 1017 30.03 846 24.98 -9.7 14.6 78 -12.9 8.8
08:30 1017 30.03 847 25.01 -9.8 14.3 79 -12.8 9
08:35 1017 30.03 847 25.01 -9.8 14.3 77 -13.2 8.3
08:40 1017 30.03 847 25.01 -9.8 14.4 77 -13.2 8.3
08:45 1017 30.03 847 25.01 -9.7 14.5 77 -13.1 8.5
08:50 1017 30.03 847 25.01 -9.8 14.3 77 -13.2 8.2
08:55 1017 30.03 847 25.01 -9.9 14.2 77 -13.2 8.2
09:00 1018 30.06 847 25.01 -9.9 14.3 75 -13.5 7.8
09:05 1018 30.06 847 25.01 -9.7 14.5 74 -13.5 7.8
09:10 1018 30.06 847 25.01 -9.5 14.9 73 -13.5 7.7
09:15 1018 30.06 847 25.01 -9.2 15.4 72 -13.5 7.8
09:20 1018 30.06 847 25.01 -9.1 15.7 71 -13.3 8
09:25 1018 30.06 847 25.01 -9.2 15.4 71 -13.5 7.6
09:30 1018 30.06 847 25.01 -9.4 15.2 71 -13.7 7.3
09:35 1018 30.06 847 25.01 -9.4 15.2 67 -14.4 6.1
09:40 1018 30.06 847 25.01 -9.3 15.3 67 -14.3 6.2
09:45 1018 30.06 847 25.01 -9.2 15.4 67 -14.3 6.2
09:50 1018 30.06 847 25.01 -9.1 15.6 66 -14.3 6.3
09:55 1018 30.06 847 25.01 -9 15.8 70 -13.5 7.7
10:00 1018 30.06 847 25.01 -9.2 15.5 67 -14.2 6.4
10:05 1018 30.06 847 25.01 -9.2 15.5 67 -14.3 6.3
10:10 1018 30.06 847 25.01 -9.4 15.1 67 -14.4 6
10:15 1018 30.06 847 25.01 -9.1 15.7 65 -14.5 5.8
10:20 1018 30.06 847 25.01 -9 15.9 65 -14.5 5.9
10:25 1018 30.06 847 25.01 -8.6 16.5 63 -14.4 6.1
10:30 1018 30.06 847 25.01 -8.5 16.6 62 -14.6 5.8
10:35 1018 30.06 847 25.01 -8.1 17.4 62 -14.3 6.3
10:40 1018 30.06 847 25.01 -7.6 18.3 60 -14.1 6.7
10:45 1018 30.06 847 25.01 -7.6 18.3 61 -13.9 6.9
10:50 1018 30.06 847 25.01 -7.9 17.7 61 -14.2 6.5
10:55 1018 30.06 847 25.01 -7.7 18.2 62 -13.9 7.1
11:00 1018 30.06 847 25.01 -7.5 18.6 62 -13.6 7.5
11:05 1018 30.06 847 25.01 -7.4 18.7 62 -13.5 7.7
11:10 1018 30.06 847 25.01 -7.8 18 64 -13.4 7.9
11:15 1018 30.06 847 25.01 -7.9 17.8 65 -13.5 7.7
11:20 1018 30.06 847 25.01 -8 17.6 64 -13.6 7.5
11:25 1018 30.06 847 25.01 -7.8 17.9 66 -13.2 8.2
11:30 1018 30.06 847 25.01 -7.7 18.1 64 -13.4 7.8
11:35 1018 30.06 847 25.01 -7.7 18.2 66 -13 8.6
11:40 1018 30.06 847 25.01 -7.2 19 64 -13 8.6
11:45 1018 30.06 847 25.01 -6.9 19.6 64 -12.7 9.2
11:50 1018 30.06 847 25.01 -6.8 19.8 63 -12.8 9
11:55 1018 30.06 847 25.01 -7.2 19.1 64 -12.9 8.8
12:00 1018 30.06 847 25.01 -7 19.5 63 -12.8 8.9
12:05 1018 30.06 847 25.01 -7.1 19.3 62 -13.1 8.5
12:10 1018 30.06 847 25.01 -6.6 20.1 59 -13.3 8
12:15 1018 30.06 847 25.01 -6.3 20.8 59 -13 8.7
12:20 1018 30.06 847 25.01 -6 21.2 58 -13 8.5
12:25 1018 30.06 847 25.01 -5.7 21.7 59 -12.5 9.6
12:30 1018 30.06 847 25.01 -5.9 21.4 58 -12.8 9
12:35 1018 30.06 847 25.01 -5.6 21.9 54 -13.6 7.4
12:40 1018 30.06 847 25.01 -6 21.2 53 -14.1 6.5
12:45 1018 30.06 847 25.01 -5.6 22 52 -13.9 7
12:50 1018 30.06 847 25.01 -5.4 22.3 53 -13.6 7.6
12:55 1018 30.06 847 25.01 -4.9 23.2 54 -12.8 9
13:00 1018 30.06 847 25.01 -4.9 23.3 55 -12.6 9.3
13:05 1018 30.06 847 25.01 -4.2 24.5 51 -12.8 9
13:10 1018 30.06 847 25.01 -4 24.8 50 -13 8.7
13:15 1018 30.06 847 25.01 -3.7 25.4 48 -13.3 8.1
13:20 1018 30.06 847 25.01 -3.6 25.4 47 -13.3 8.1
13:25 1017 30.03 847 25.01 -3.5 25.7 46 -13.5 7.7
13:30 1017 30.03 847 25.01 -3.6 25.6 47 -13.4 7.9
13:35 1017 30.03 847 25.01 -3.4 25.8 47 -13.1 8.4
13:40 1017 30.03 847 25.01 -3.5 25.8 47 -13.1 8.4
13:45 1017 30.03 847 25.01 -3.4 26 48 -12.9 8.8
13:50 1017 30.03 847 25.01 -2.9 26.8 45 -13.4 7.9
13:55 1017 30.03 846 24.98 -2.4 27.7 46 -12.6 9.3
14:00 1017 30.03 846 24.98 -2.4 27.7 47 -12.2 10.1
14:05 1017 30.03 846 24.98 -2.1 28.3 48 -11.7 10.9
14:10 1017 30.03 846 24.98 -1.9 28.7 47 -11.6 11
14:15 1017 30.03 846 24.98 -1.9 28.5 47 -11.7 10.9
14:20 1017 30.03 846 24.98 -2.3 27.8 52 -10.8 12.6
14:25 1017 30.03 846 24.98 -3 26.6 51 -11.8 10.8
14:30 1017 30.03 846 24.98 -2.7 27.1 51 -11.5 11.2
14:35 1017 30.03 846 24.98 -2.5 27.4 50 -11.6 11
14:40 1017 30.03 846 24.98 -4.2 24.4 57 -11.6 11.2
14:45 1017 30.03 846 24.98 -4.1 24.7 54 -12.1 10.1
14:50 1017 30.03 846 24.98 -3.2 26.2 53 -11.4 11.4
14:55 1017 30.03 846 24.98 -3.2 26.2 52 -11.7 11
15:00 1017 30.03 846 24.98 -3.3 26 54 -11.4 11.5
15:05 1017 30.03 846 24.98 -2.9 26.9 50 -11.8 10.7
15:10 1017 30.03 846 24.98 -1.8 28.7 48 -11.3 11.6
15:15 1017 30.03 846 24.98 -2.9 26.7 53 -11.2 11.8
15:20 1017 30.03 846 24.98 -4.2 24.5 58 -11.3 11.6
15:25 1017 30.03 846 24.98 -4.6 23.7 59 -11.4 11.5
15:30 1017 30.03 846 24.98 -5 23 60 -11.7 10.9
15:35 1017 30.03 846 24.98 -5.2 22.6 61 -11.7 10.9
15:40 1017 30.03 846 24.98 -5.5 22.1 60 -12.2 10.1
15:45 1017 30.03 846 24.98 -5.5 22.1 61 -12 10.4
15:50 1017 30.03 846 24.98 -5.3 22.4 60 -12 10.4
15:55 1017 30.03 846 24.98 -5.2 22.6 57 -12.5 9.4
16:00 1017 30.03 846 24.98 -5.6 21.9 59 -12.5 9.6
16:05 1017 30.03 846 24.98 -5.3 22.5 56 -12.8 9
16:10 1017 30.03 846 24.98 -4.8 23.3 54 -12.7 9.2
16:15 1017 30.03 846 24.98 -4.3 24.3 55 -12.1 10.1
16:20 1017 30.03 846 24.98 -3.8 25.1 51 -12.6 9.4
16:25 1017 30.03 846 24.98 -4.1 24.6 52 -12.6 9.4
16:30 1017 30.03 846 24.98 -4.3 24.2 55 -12.1 10.2
16:35 1017 30.03 846 24.98 -4.4 24.1 52 -12.7 9.1
16:40 1017 30.03 846 24.98 -3.9 25 53 -12.2 10.1
16:45 1017 30.03 846 24.98 -3.7 25.3 54 -11.7 10.9
16:50 1017 30.03 846 24.98 -4.1 24.7 56 -11.5 11.3
16:55 1017 30.03 846 24.98 -3.9 25 54 -11.9 10.6
17:00 1017 30.03 846 24.98 -4.1 24.5 57 -11.5 11.2
17:05 1017 30.03 846 24.98 -3.7 25.4 54 -11.8 10.8
17:10 1017 30.03 846 24.98 -3.5 25.8 52 -11.9 10.6
17:15 1017 30.03 846 24.98 -3.4 25.9 52 -11.9 10.6
17:20 1017 30.03 846 24.98 -3.3 26 51 -12.2 10.1
17:25 1017 30.03 846 24.98 -3.6 25.5 51 -12.4 9.7
17:30 1017 30.03 846 24.98 -4.3 24.3 52 -12.7 9.1
17:35 1017 30.03 846 24.98 -4.2 24.5 53 -12.4 9.7
17:40 1017 30.03 846 24.98 -4 24.7 51 -12.8 8.9
17:45 1017 30.03 847 25.01 -4.4 24.1 52 -12.9 8.9
17:50 1017 30.03 847 25.01 -4.4 24 58 -11.5 11.3
17:55 1017 30.03 847 25.01 -4.5 23.9 55 -12.2 10.1
18:00 1017 30.03 847 25.01 -4.4 24.1 56 -12 10.4
18:05 1017 30.03 847 25.01 -4.5 23.9 55 -12.3 9.9
18:10 1018 30.06 847 25.01 -4.5 23.9 54 -12.5 9.5
18:15 1018 30.06 847 25.01 -4.7 23.6 54 -12.7 9.2
18:20 1018 30.06 847 25.01 -4.7 23.6 54 -12.6 9.4
18:25 1018 30.06 847 25.01 -4.7 23.6 54 -12.5 9.4
18:30 1018 30.06 847 25.01 -4.7 23.5 54 -12.6 9.3
18:35 1018 30.06 847 25.01 -4.8 23.4 55 -12.6 9.4
18:40 1018 30.06 847 25.01 -4.8 23.3 56 -12.4 9.7
18:45 1018 30.06 847 25.01 -4.9 23.2 56 -12.4 9.6
18:50 1018 30.06 847 25.01 -5.2 22.7 59 -11.9 10.6
18:55 1018 30.06 847 25.01 -6.1 21 62 -12.2 10.1
19:00 1018 30.06 847 25.01 -6.6 20.1 63 -12.6 9.4
19:05 1018 30.06 847 25.01 -6.8 19.8 63 -12.6 9.3
19:10 1018 30.06 847 25.01 -6.7 19.9 64 -12.5 9.6
19:15 1018 30.06 847 25.01 -6.4 20.5 63 -12.4 9.7
19:20 1018 30.06 847 25.01 -6.2 20.8 62 -12.4 9.7
19:25 1018 30.06 847 25.01 -6.2 20.9 62 -12.3 9.8
19:30 1018 30.06 847 25.01 -6.1 21 59 -12.9 8.7
19:35 1018 30.06 847 25.01 -5.8 21.5 60 -12.5 9.5
19:40 1018 30.06 848 25.04 -5.7 21.7 63 -11.8 10.8
19:45 1018 30.06 848 25.04 -5.8 21.6 64 -11.6 11.2
19:50 1018 30.06 848 25.04 -5.9 21.4 64 -11.6 11
19:55 1018 30.06 848 25.04 -5.9 21.4 64 -11.7 11
20:00 1018 30.06 848 25.04 -5.9 21.3 65 -11.5 11.3
20:05 1018 30.06 848 25.04 -6.1 21.1 65 -11.6 11.1
20:10 1018 30.06 848 25.04 -6.1 21 66 -11.4 11.4
20:15 1018 30.06 848 25.04 -6.3 20.6 73 -10.3 13.4
20:20 1018 30.06 848 25.04 -6.9 19.7 77 -10.3 13.4
20:25 1018 30.06 848 25.04 -7 19.3 77 -10.4 13.4
20:30 1018 30.06 848 25.04 -7.1 19.1 78 -10.3 13.5
20:35 1018 30.06 848 25.04 -7.1 19.3 78 -10.3 13.5
20:40 1018 30.06 847 25.01 -7 19.4 79 -10 13.9
20:45 1018 30.06 847 25.01 -7 19.3 80 -9.9 14.2
20:50 1018 30.06 847 25.01 -7.1 19.1 81 -9.8 14.3
20:55 1018 30.06 847 25.01 -7.3 18.9 82 -9.9 14.2
21:00 1018 30.06 848 25.04 -7.3 18.8 82 -9.9 14.1
21:05 1018 30.06 847 25.01 -7.3 19 81 -10 14.1
21:10 1018 30.06 848 25.04 -7.2 19.1 81 -10 14
21:15 1018 30.06 848 25.04 -7 19.3 80 -10 14
21:20 1018 30.06 847 25.01 -6.9 19.5 79 -9.9 14.1
21:25 1018 30.06 847 25.01 -6.9 19.6 79 -9.9 14.2
21:30 1018 30.06 847 25.01 -7.1 19.3 80 -9.9 14.2
21:35 1018 30.06 847 25.01 -7 19.4 78 -10.2 13.7
21:40 1018 30.06 847 25.01 -6.8 19.8 77 -10.1 13.8
21:45 1018 30.06 847 25.01 -6.7 19.9 76 -10.3 13.5
21:50 1018 30.06 847 25.01 -6.7 20 77 -10 14
21:55 1018 30.06 847 25.01 -6.8 19.7 79 -9.8 14.3
22:00 1018 30.06 847 25.01 -7 19.4 78 -10.2 13.7
22:05 1018 30.06 847 25.01 -7 19.5 77 -10.3 13.4
22:10 1018 30.06 847 25.01 -7 19.5 80 -9.9 14.1
22:15 1018 30.06 847 25.01 -7.1 19.2 80 -10.1 13.9
22:20 1018 30.06 847 25.01 -7.2 19 79 -10.2 13.6
22:25 1018 30.06 847 25.01 -7.3 18.8 80 -10.2 13.6
22:30 1018 30.06 848 25.04 -7.3 18.9 80 -10.1 13.8
22:35 1018 30.06 848 25.04 -7.4 18.6 81 -10.1 13.8
22:40 1018 30.06 848 25.04 -7.6 18.3 82 -10.1 13.8
22:45 1018 30.06 847 25.01 -7.7 18.2 83 -10.1 13.8
22:50 1018 30.06 848 25.04 -7.7 18.2 83 -10.1 13.8
22:55 1018 30.06 848 25.04 -7.6 18.3 83 -10 14
23:00 1018 30.06 848 25.04 -7.7 18.2 84 -10 14.1
23:05 1018 30.06 848 25.04 -7.6 18.4 82 -10.1 13.9
23:10 1018 30.06 848 25.04 -7.3 18.9 79 -10.4 13.3
23:15 1018 30.06 848 25.04 -7.1 19.2 79 -10.2 13.6
23:20 1018 30.06 848 25.04 -7.1 19.2 81 -9.8 14.3
23:25 1019 30.09 848 25.04 -6.9 19.5 81 -9.7 14.6
23:30 1019 30.09 848 25.04 -6.7 19.9 79 -9.8 14.4
23:35 1019 30.09 848 25.04 -6.6 20 79 -9.7 14.5
23:40 1019 30.09 848 25.04 -6.5 20.2 78 -9.7 14.5
23:45 1019 30.09 848 25.04 -6.5 20.4 77 -9.8 14.3
23:50 1019 30.09 848 25.04 -6.4 20.5 77 -9.7 14.5
23:55 1019 30.09 848 25.04 -6.4 20.5 78 -9.6 14.8
24:00 1019 30.09 848 25.04 -6.4 20.5 80 -9.3 15.3